sensor_id;sensor_type;location;lat;lon;timestamp;P1;durP1;ratioP1;P2;durP2;ratioP2
13228;SDS011;6680;53.220;10.402;2022-12-24T00:02:19;6.43;;;4.17;;
13228;SDS011;6680;53.220;10.402;2022-12-24T00:04:49;6.27;;;4.00;;
13228;SDS011;6680;53.220;10.402;2022-12-24T00:07:17;8.93;;;5.60;;
13228;SDS011;6680;53.220;10.402;2022-12-24T00:09:44;6.17;;;4.00;;
13228;SDS011;6680;53.220;10.402;2022-12-24T00:12:11;6.77;;;4.57;;
13228;SDS011;6680;53.220;10.402;2022-12-24T00:14:37;9.33;;;4.50;;
13228;SDS011;6680;53.220;10.402;2022-12-24T00:17:04;7.67;;;4.90;;
13228;SDS011;6680;53.220;10.402;2022-12-24T00:19:31;8.50;;;4.47;;
13228;SDS011;6680;53.220;10.402;2022-12-24T00:21:58;6.13;;;4.23;;
13228;SDS011;6680;53.220;10.402;2022-12-24T00:24:26;6.20;;;4.10;;
13228;SDS011;6680;53.220;10.402;2022-12-24T00:26:52;5.80;;;4.10;;
13228;SDS011;6680;53.220;10.402;2022-12-24T00:29:19;9.27;;;4.33;;
13228;SDS011;6680;53.220;10.402;2022-12-24T00:31:46;9.97;;;4.90;;
13228;SDS011;6680;53.220;10.402;2022-12-24T00:34:13;7.83;;;4.73;;
13228;SDS011;6680;53.220;10.402;2022-12-24T00:36:39;8.37;;;4.03;;
13228;SDS011;6680;53.220;10.402;2022-12-24T00:39:06;9.30;;;4.47;;
13228;SDS011;6680;53.220;10.402;2022-12-24T00:41:35;6.10;;;4.37;;
13228;SDS011;6680;53.220;10.402;2022-12-24T00:44:02;7.77;;;4.60;;
13228;SDS011;6680;53.220;10.402;2022-12-24T00:46:31;7.90;;;4.60;;
13228;SDS011;6680;53.220;10.402;2022-12-24T00:48:59;7.47;;;4.60;;
13228;SDS011;6680;53.220;10.402;2022-12-24T00:51:26;10.17;;;4.33;;
13228;SDS011;6680;53.220;10.402;2022-12-24T00:53:53;9.00;;;4.73;;
13228;SDS011;6680;53.220;10.402;2022-12-24T00:56:20;8.77;;;3.90;;
13228;SDS011;6680;53.220;10.402;2022-12-24T00:58:49;7.07;;;4.67;;
13228;SDS011;6680;53.220;10.402;2022-12-24T01:01:16;6.23;;;4.50;;
13228;SDS011;6680;53.220;10.402;2022-12-24T01:03:43;6.67;;;4.03;;
13228;SDS011;6680;53.220;10.402;2022-12-24T01:06:11;6.67;;;4.37;;
13228;SDS011;6680;53.220;10.402;2022-12-24T01:08:39;8.27;;;4.13;;
13228;SDS011;6680;53.220;10.402;2022-12-24T01:11:06;8.03;;;4.20;;
13228;SDS011;6680;53.220;10.402;2022-12-24T01:13:34;7.30;;;4.37;;
13228;SDS011;6680;53.220;10.402;2022-12-24T01:16:10;7.80;;;4.30;;
13228;SDS011;6680;53.220;10.402;2022-12-24T01:18:39;5.37;;;4.03;;
13228;SDS011;6680;53.220;10.402;2022-12-24T01:21:06;8.40;;;5.07;;
13228;SDS011;6680;53.220;10.402;2022-12-24T01:23:32;7.30;;;4.27;;
13228;SDS011;6680;53.220;10.402;2022-12-24T01:25:59;7.67;;;4.53;;
13228;SDS011;6680;53.220;10.402;2022-12-24T01:28:27;8.37;;;4.40;;
13228;SDS011;6680;53.220;10.402;2022-12-24T01:30:54;6.63;;;4.53;;
13228;SDS011;6680;53.220;10.402;2022-12-24T01:33:22;6.00;;;3.83;;
13228;SDS011;6680;53.220;10.402;2022-12-24T01:35:49;8.43;;;4.13;;
13228;SDS011;6680;53.220;10.402;2022-12-24T01:38:16;4.93;;;3.63;;
13228;SDS011;6680;53.220;10.402;2022-12-24T01:40:42;5.53;;;4.17;;
13228;SDS011;6680;53.220;10.402;2022-12-24T01:43:28;5.00;;;3.67;;
13228;SDS011;6680;53.220;10.402;2022-12-24T01:45:57;7.23;;;4.37;;
13228;SDS011;6680;53.220;10.402;2022-12-24T01:51:13;7.50;;;4.00;;
13228;SDS011;6680;53.220;10.402;2022-12-24T01:53:44;7.33;;;4.17;;
13228;SDS011;6680;53.220;10.402;2022-12-24T01:56:14;7.03;;;4.37;;
13228;SDS011;6680;53.220;10.402;2022-12-24T01:58:42;4.93;;;4.27;;
13228;SDS011;6680;53.220;10.402;2022-12-24T02:01:13;9.07;;;5.20;;
13228;SDS011;6680;53.220;10.402;2022-12-24T02:03:40;10.93;;;4.33;;
13228;SDS011;6680;53.220;10.402;2022-12-24T02:06:08;7.83;;;4.63;;
13228;SDS011;6680;53.220;10.402;2022-12-24T02:08:40;6.97;;;4.73;;
13228;SDS011;6680;53.220;10.402;2022-12-24T02:11:11;7.27;;;4.80;;
13228;SDS011;6680;53.220;10.402;2022-12-24T02:13:40;5.50;;;3.73;;
13228;SDS011;6680;53.220;10.402;2022-12-24T02:16:12;6.43;;;4.23;;
13228;SDS011;6680;53.220;10.402;2022-12-24T02:18:48;7.93;;;4.63;;
13228;SDS011;6680;53.220;10.402;2022-12-24T02:21:31;7.10;;;4.37;;
13228;SDS011;6680;53.220;10.402;2022-12-24T02:24:20;7.50;;;4.47;;
13228;SDS011;6680;53.220;10.402;2022-12-24T02:27:01;7.77;;;4.80;;
13228;SDS011;6680;53.220;10.402;2022-12-24T02:29:48;7.40;;;4.53;;
13228;SDS011;6680;53.220;10.402;2022-12-24T02:32:30;8.73;;;4.60;;
13228;SDS011;6680;53.220;10.402;2022-12-24T02:35:03;7.80;;;4.50;;
13228;SDS011;6680;53.220;10.402;2022-12-24T02:37:35;7.37;;;4.23;;
13228;SDS011;6680;53.220;10.402;2022-12-24T02:40:07;8.37;;;4.77;;
13228;SDS011;6680;53.220;10.402;2022-12-24T02:42:37;9.67;;;5.10;;
13228;SDS011;6680;53.220;10.402;2022-12-24T02:45:08;6.50;;;3.93;;
13228;SDS011;6680;53.220;10.402;2022-12-24T02:47:38;6.70;;;4.37;;
13228;SDS011;6680;53.220;10.402;2022-12-24T02:50:07;7.93;;;4.80;;
13228;SDS011;6680;53.220;10.402;2022-12-24T02:52:35;7.77;;;4.97;;
13228;SDS011;6680;53.220;10.402;2022-12-24T02:55:04;7.47;;;4.33;;
13228;SDS011;6680;53.220;10.402;2022-12-24T02:57:37;6.93;;;4.30;;
13228;SDS011;6680;53.220;10.402;2022-12-24T03:00:15;7.03;;;4.70;;
13228;SDS011;6680;53.220;10.402;2022-12-24T03:02:52;7.00;;;4.27;;
13228;SDS011;6680;53.220;10.402;2022-12-24T03:05:33;10.10;;;4.83;;
13228;SDS011;6680;53.220;10.402;2022-12-24T03:08:06;4.87;;;3.37;;
13228;SDS011;6680;53.220;10.402;2022-12-24T03:10:40;14.87;;;5.10;;
13228;SDS011;6680;53.220;10.402;2022-12-24T03:13:11;8.80;;;4.80;;
13228;SDS011;6680;53.220;10.402;2022-12-24T03:15:41;7.57;;;4.20;;
13228;SDS011;6680;53.220;10.402;2022-12-24T03:18:10;7.53;;;4.63;;
13228;SDS011;6680;53.220;10.402;2022-12-24T03:20:39;7.97;;;4.30;;
13228;SDS011;6680;53.220;10.402;2022-12-24T03:23:09;6.53;;;3.53;;
13228;SDS011;6680;53.220;10.402;2022-12-24T03:25:37;6.27;;;3.90;;
13228;SDS011;6680;53.220;10.402;2022-12-24T03:28:06;6.50;;;4.43;;
13228;SDS011;6680;53.220;10.402;2022-12-24T03:30:35;7.97;;;4.43;;
13228;SDS011;6680;53.220;10.402;2022-12-24T03:33:06;5.63;;;3.70;;
13228;SDS011;6680;53.220;10.402;2022-12-24T03:35:35;6.87;;;4.37;;
13228;SDS011;6680;53.220;10.402;2022-12-24T03:38:02;8.17;;;4.23;;
13228;SDS011;6680;53.220;10.402;2022-12-24T03:40:29;6.63;;;3.70;;
13228;SDS011;6680;53.220;10.402;2022-12-24T03:42:56;6.17;;;3.83;;
13228;SDS011;6680;53.220;10.402;2022-12-24T03:45:23;10.30;;;4.47;;
13228;SDS011;6680;53.220;10.402;2022-12-24T03:47:50;6.77;;;4.73;;
13228;SDS011;6680;53.220;10.402;2022-12-24T03:50:18;8.00;;;4.63;;
13228;SDS011;6680;53.220;10.402;2022-12-24T03:52:45;5.97;;;4.10;;
13228;SDS011;6680;53.220;10.402;2022-12-24T03:55:11;7.80;;;5.30;;
13228;SDS011;6680;53.220;10.402;2022-12-24T03:57:38;7.30;;;4.30;;
13228;SDS011;6680;53.220;10.402;2022-12-24T04:00:05;7.17;;;4.77;;
13228;SDS011;6680;53.220;10.402;2022-12-24T04:02:33;7.63;;;4.10;;
13228;SDS011;6680;53.220;10.402;2022-12-24T04:05:00;5.97;;;4.00;;
13228;SDS011;6680;53.220;10.402;2022-12-24T04:07:28;7.00;;;4.83;;
13228;SDS011;6680;53.220;10.402;2022-12-24T04:09:54;7.83;;;4.50;;
13228;SDS011;6680;53.220;10.402;2022-12-24T04:12:21;8.47;;;4.47;;
13228;SDS011;6680;53.220;10.402;2022-12-24T04:14:48;6.57;;;4.53;;
13228;SDS011;6680;53.220;10.402;2022-12-24T04:17:15;7.10;;;4.50;;
13228;SDS011;6680;53.220;10.402;2022-12-24T04:19:42;9.40;;;4.90;;
13228;SDS011;6680;53.220;10.402;2022-12-24T04:22:09;5.30;;;3.87;;
13228;SDS011;6680;53.220;10.402;2022-12-24T04:24:37;7.17;;;4.07;;
13228;SDS011;6680;53.220;10.402;2022-12-24T04:27:03;7.77;;;5.17;;
13228;SDS011;6680;53.220;10.402;2022-12-24T04:29:30;9.47;;;4.67;;
13228;SDS011;6680;53.220;10.402;2022-12-24T04:31:57;6.77;;;4.57;;
13228;SDS011;6680;53.220;10.402;2022-12-24T04:34:23;8.07;;;5.00;;
13228;SDS011;6680;53.220;10.402;2022-12-24T04:36:50;7.23;;;4.50;;
13228;SDS011;6680;53.220;10.402;2022-12-24T04:39:17;8.20;;;4.60;;
13228;SDS011;6680;53.220;10.402;2022-12-24T04:41:45;6.77;;;4.40;;
13228;SDS011;6680;53.220;10.402;2022-12-24T04:44:11;7.50;;;4.80;;
13228;SDS011;6680;53.220;10.402;2022-12-24T04:46:38;7.07;;;4.47;;
13228;SDS011;6680;53.220;10.402;2022-12-24T04:49:06;6.73;;;4.27;;
13228;SDS011;6680;53.220;10.402;2022-12-24T04:51:33;6.23;;;4.43;;
13228;SDS011;6680;53.220;10.402;2022-12-24T04:54:00;8.13;;;4.30;;
13228;SDS011;6680;53.220;10.402;2022-12-24T04:56:27;6.50;;;4.03;;
13228;SDS011;6680;53.220;10.402;2022-12-24T04:58:57;6.17;;;4.10;;
13228;SDS011;6680;53.220;10.402;2022-12-24T05:01:25;7.10;;;4.57;;
13228;SDS011;6680;53.220;10.402;2022-12-24T05:03:53;5.73;;;4.07;;
13228;SDS011;6680;53.220;10.402;2022-12-24T05:06:21;6.87;;;4.60;;
13228;SDS011;6680;53.220;10.402;2022-12-24T05:08:49;7.93;;;4.67;;
13228;SDS011;6680;53.220;10.402;2022-12-24T05:11:18;7.57;;;4.23;;
13228;SDS011;6680;53.220;10.402;2022-12-24T05:13:45;5.80;;;4.33;;
13228;SDS011;6680;53.220;10.402;2022-12-24T05:16:14;7.60;;;4.63;;
13228;SDS011;6680;53.220;10.402;2022-12-24T05:18:42;6.33;;;3.97;;
13228;SDS011;6680;53.220;10.402;2022-12-24T05:21:09;7.07;;;3.97;;
13228;SDS011;6680;53.220;10.402;2022-12-24T05:23:38;8.20;;;4.20;;
13228;SDS011;6680;53.220;10.402;2022-12-24T05:26:22;7.50;;;3.93;;
13228;SDS011;6680;53.220;10.402;2022-12-24T05:28:54;6.43;;;3.93;;
13228;SDS011;6680;53.220;10.402;2022-12-24T05:31:24;6.83;;;4.30;;
13228;SDS011;6680;53.220;10.402;2022-12-24T05:33:52;6.63;;;4.43;;
13228;SDS011;6680;53.220;10.402;2022-12-24T05:36:20;4.77;;;3.93;;
13228;SDS011;6680;53.220;10.402;2022-12-24T05:38:46;7.00;;;4.03;;
13228;SDS011;6680;53.220;10.402;2022-12-24T05:41:13;6.00;;;3.87;;
13228;SDS011;6680;53.220;10.402;2022-12-24T05:43:40;4.33;;;3.47;;
13228;SDS011;6680;53.220;10.402;2022-12-24T05:46:08;5.77;;;3.20;;
13228;SDS011;6680;53.220;10.402;2022-12-24T05:48:38;6.87;;;3.93;;
13228;SDS011;6680;53.220;10.402;2022-12-24T05:51:05;6.43;;;4.13;;
13228;SDS011;6680;53.220;10.402;2022-12-24T05:53:33;7.10;;;3.60;;
13228;SDS011;6680;53.220;10.402;2022-12-24T05:56:03;6.27;;;4.03;;
13228;SDS011;6680;53.220;10.402;2022-12-24T05:58:31;5.43;;;4.00;;
13228;SDS011;6680;53.220;10.402;2022-12-24T06:00:59;5.27;;;4.03;;
13228;SDS011;6680;53.220;10.402;2022-12-24T06:03:26;6.50;;;4.20;;
13228;SDS011;6680;53.220;10.402;2022-12-24T06:05:59;5.80;;;3.90;;
13228;SDS011;6680;53.220;10.402;2022-12-24T06:08:26;7.23;;;3.83;;
13228;SDS011;6680;53.220;10.402;2022-12-24T06:10:55;4.00;;;3.57;;
13228;SDS011;6680;53.220;10.402;2022-12-24T06:13:22;6.20;;;3.53;;
13228;SDS011;6680;53.220;10.402;2022-12-24T06:15:49;4.43;;;3.43;;
13228;SDS011;6680;53.220;10.402;2022-12-24T06:18:16;5.43;;;3.67;;
13228;SDS011;6680;53.220;10.402;2022-12-24T06:20:43;5.23;;;3.57;;
13228;SDS011;6680;53.220;10.402;2022-12-24T06:23:11;6.83;;;3.57;;
13228;SDS011;6680;53.220;10.402;2022-12-24T06:25:37;5.57;;;3.33;;
13228;SDS011;6680;53.220;10.402;2022-12-24T06:28:04;6.30;;;4.10;;
13228;SDS011;6680;53.220;10.402;2022-12-24T06:30:30;5.13;;;3.63;;
13228;SDS011;6680;53.220;10.402;2022-12-24T06:32:57;5.43;;;3.73;;
13228;SDS011;6680;53.220;10.402;2022-12-24T06:35:24;4.80;;;3.43;;
13228;SDS011;6680;53.220;10.402;2022-12-24T06:37:51;5.37;;;3.90;;
13228;SDS011;6680;53.220;10.402;2022-12-24T06:40:19;5.53;;;3.90;;
13228;SDS011;6680;53.220;10.402;2022-12-24T06:42:45;7.13;;;4.10;;
13228;SDS011;6680;53.220;10.402;2022-12-24T06:45:12;6.63;;;3.80;;
13228;SDS011;6680;53.220;10.402;2022-12-24T06:47:39;6.70;;;3.80;;
13228;SDS011;6680;53.220;10.402;2022-12-24T06:50:06;3.73;;;2.93;;
13228;SDS011;6680;53.220;10.402;2022-12-24T06:52:33;5.70;;;3.53;;
13228;SDS011;6680;53.220;10.402;2022-12-24T06:55:00;4.37;;;3.53;;
13228;SDS011;6680;53.220;10.402;2022-12-24T06:57:28;4.73;;;3.27;;
13228;SDS011;6680;53.220;10.402;2022-12-24T06:59:55;5.57;;;3.73;;
13228;SDS011;6680;53.220;10.402;2022-12-24T07:02:22;4.03;;;3.60;;
13228;SDS011;6680;53.220;10.402;2022-12-24T07:04:49;5.00;;;3.47;;
13228;SDS011;6680;53.220;10.402;2022-12-24T07:07:15;4.53;;;3.33;;
13228;SDS011;6680;53.220;10.402;2022-12-24T07:09:42;4.30;;;3.30;;
13228;SDS011;6680;53.220;10.402;2022-12-24T07:12:09;5.93;;;4.17;;
13228;SDS011;6680;53.220;10.402;2022-12-24T07:14:37;4.63;;;3.47;;
13228;SDS011;6680;53.220;10.402;2022-12-24T07:17:04;6.03;;;3.60;;
13228;SDS011;6680;53.220;10.402;2022-12-24T07:19:30;4.17;;;3.43;;
13228;SDS011;6680;53.220;10.402;2022-12-24T07:21:58;4.93;;;3.33;;
13228;SDS011;6680;53.220;10.402;2022-12-24T07:24:24;5.50;;;3.00;;
13228;SDS011;6680;53.220;10.402;2022-12-24T07:26:51;4.53;;;3.30;;
13228;SDS011;6680;53.220;10.402;2022-12-24T07:29:18;5.33;;;2.97;;
13228;SDS011;6680;53.220;10.402;2022-12-24T07:31:46;5.90;;;3.63;;
13228;SDS011;6680;53.220;10.402;2022-12-24T07:34:13;4.37;;;2.90;;
13228;SDS011;6680;53.220;10.402;2022-12-24T07:36:39;4.53;;;3.10;;
13228;SDS011;6680;53.220;10.402;2022-12-24T07:39:06;5.03;;;3.00;;
13228;SDS011;6680;53.220;10.402;2022-12-24T07:41:33;3.63;;;2.73;;
13228;SDS011;6680;53.220;10.402;2022-12-24T07:43:59;3.63;;;2.70;;
13228;SDS011;6680;53.220;10.402;2022-12-24T07:46:26;4.63;;;3.37;;
13228;SDS011;6680;53.220;10.402;2022-12-24T07:48:54;3.00;;;2.60;;
13228;SDS011;6680;53.220;10.402;2022-12-24T07:51:21;3.93;;;3.27;;
13228;SDS011;6680;53.220;10.402;2022-12-24T07:53:47;3.70;;;2.47;;
13228;SDS011;6680;53.220;10.402;2022-12-24T07:56:14;3.03;;;2.70;;
13228;SDS011;6680;53.220;10.402;2022-12-24T07:58:42;3.73;;;3.20;;
13228;SDS011;6680;53.220;10.402;2022-12-24T08:01:08;3.03;;;2.53;;
13228;SDS011;6680;53.220;10.402;2022-12-24T08:03:36;3.27;;;2.70;;
13228;SDS011;6680;53.220;10.402;2022-12-24T08:06:04;3.33;;;2.70;;
13228;SDS011;6680;53.220;10.402;2022-12-24T08:08:31;3.27;;;2.60;;
13228;SDS011;6680;53.220;10.402;2022-12-24T08:10:59;3.87;;;2.60;;
13228;SDS011;6680;53.220;10.402;2022-12-24T08:13:26;2.97;;;2.67;;
13228;SDS011;6680;53.220;10.402;2022-12-24T08:15:53;3.50;;;2.63;;
13228;SDS011;6680;53.220;10.402;2022-12-24T08:18:20;5.93;;;2.63;;
13228;SDS011;6680;53.220;10.402;2022-12-24T08:20:47;2.77;;;2.53;;
13228;SDS011;6680;53.220;10.402;2022-12-24T08:23:15;3.57;;;2.73;;
13228;SDS011;6680;53.220;10.402;2022-12-24T08:25:42;4.67;;;3.23;;
13228;SDS011;6680;53.220;10.402;2022-12-24T08:28:09;4.47;;;3.40;;
13228;SDS011;6680;53.220;10.402;2022-12-24T08:30:37;3.47;;;2.50;;
13228;SDS011;6680;53.220;10.402;2022-12-24T08:33:04;3.20;;;2.57;;
13228;SDS011;6680;53.220;10.402;2022-12-24T08:35:31;2.70;;;2.20;;
13228;SDS011;6680;53.220;10.402;2022-12-24T08:37:57;3.80;;;2.60;;
13228;SDS011;6680;53.220;10.402;2022-12-24T08:40:25;4.60;;;2.23;;
13228;SDS011;6680;53.220;10.402;2022-12-24T08:42:53;4.13;;;2.50;;
13228;SDS011;6680;53.220;10.402;2022-12-24T08:45:20;2.87;;;2.47;;
13228;SDS011;6680;53.220;10.402;2022-12-24T08:47:47;3.50;;;2.63;;
13228;SDS011;6680;53.220;10.402;2022-12-24T08:50:14;3.37;;;2.40;;
13228;SDS011;6680;53.220;10.402;2022-12-24T08:52:40;3.57;;;2.67;;
13228;SDS011;6680;53.220;10.402;2022-12-24T08:55:07;3.43;;;2.57;;
13228;SDS011;6680;53.220;10.402;2022-12-24T08:57:36;2.70;;;2.50;;
13228;SDS011;6680;53.220;10.402;2022-12-24T09:00:04;2.93;;;2.60;;
13228;SDS011;6680;53.220;10.402;2022-12-24T09:02:31;2.40;;;2.10;;
13228;SDS011;6680;53.220;10.402;2022-12-24T09:04:58;3.30;;;2.50;;
13228;SDS011;6680;53.220;10.402;2022-12-24T09:07:25;3.33;;;2.67;;
13228;SDS011;6680;53.220;10.402;2022-12-24T09:09:51;3.10;;;2.80;;
13228;SDS011;6680;53.220;10.402;2022-12-24T09:12:18;3.33;;;3.03;;
13228;SDS011;6680;53.220;10.402;2022-12-24T09:14:46;2.40;;;2.20;;
13228;SDS011;6680;53.220;10.402;2022-12-24T09:17:13;3.17;;;2.47;;
13228;SDS011;6680;53.220;10.402;2022-12-24T09:19:39;3.03;;;2.73;;
13228;SDS011;6680;53.220;10.402;2022-12-24T09:22:06;2.67;;;2.40;;
13228;SDS011;6680;53.220;10.402;2022-12-24T09:24:33;3.10;;;2.80;;
13228;SDS011;6680;53.220;10.402;2022-12-24T09:27:00;2.97;;;2.57;;
13228;SDS011;6680;53.220;10.402;2022-12-24T09:29:28;3.17;;;2.87;;
13228;SDS011;6680;53.220;10.402;2022-12-24T09:31:56;2.43;;;2.23;;
13228;SDS011;6680;53.220;10.402;2022-12-24T09:34:23;2.97;;;2.40;;
13228;SDS011;6680;53.220;10.402;2022-12-24T09:36:50;2.70;;;2.50;;
13228;SDS011;6680;53.220;10.402;2022-12-24T09:39:18;2.73;;;2.20;;
13228;SDS011;6680;53.220;10.402;2022-12-24T09:41:46;3.40;;;2.57;;
13228;SDS011;6680;53.220;10.402;2022-12-24T09:44:26;4.00;;;2.60;;
13228;SDS011;6680;53.220;10.402;2022-12-24T09:47:02;3.23;;;2.67;;
13228;SDS011;6680;53.220;10.402;2022-12-24T09:49:36;3.30;;;3.00;;
13228;SDS011;6680;53.220;10.402;2022-12-24T09:52:08;2.87;;;2.60;;
13228;SDS011;6680;53.220;10.402;2022-12-24T09:54:38;3.13;;;2.60;;
13228;SDS011;6680;53.220;10.402;2022-12-24T09:57:12;3.87;;;2.70;;
13228;SDS011;6680;53.220;10.402;2022-12-24T09:59:43;2.93;;;2.40;;
13228;SDS011;6680;53.220;10.402;2022-12-24T10:02:13;3.63;;;2.80;;
13228;SDS011;6680;53.220;10.402;2022-12-24T10:04:42;4.90;;;2.93;;
13228;SDS011;6680;53.220;10.402;2022-12-24T10:07:15;4.20;;;3.80;;
13228;SDS011;6680;53.220;10.402;2022-12-24T10:09:52;4.83;;;4.03;;
13228;SDS011;6680;53.220;10.402;2022-12-24T10:12:25;3.87;;;3.27;;
13228;SDS011;6680;53.220;10.402;2022-12-24T10:15:00;4.13;;;3.20;;
13228;SDS011;6680;53.220;10.402;2022-12-24T10:17:38;3.43;;;2.83;;
13228;SDS011;6680;53.220;10.402;2022-12-24T10:20:21;4.23;;;3.20;;
13228;SDS011;6680;53.220;10.402;2022-12-24T10:22:58;4.20;;;3.33;;
13228;SDS011;6680;53.220;10.402;2022-12-24T10:25:31;3.83;;;3.17;;
13228;SDS011;6680;53.220;10.402;2022-12-24T10:28:04;3.50;;;2.87;;
13228;SDS011;6680;53.220;10.402;2022-12-24T10:30:39;3.10;;;2.73;;
13228;SDS011;6680;53.220;10.402;2022-12-24T10:33:11;3.50;;;3.20;;
13228;SDS011;6680;53.220;10.402;2022-12-24T10:35:44;3.63;;;2.80;;
13228;SDS011;6680;53.220;10.402;2022-12-24T10:38:14;4.43;;;3.60;;
13228;SDS011;6680;53.220;10.402;2022-12-24T10:40:41;4.67;;;3.87;;
13228;SDS011;6680;53.220;10.402;2022-12-24T10:43:11;4.83;;;3.80;;
13228;SDS011;6680;53.220;10.402;2022-12-24T10:45:41;5.37;;;3.50;;
13228;SDS011;6680;53.220;10.402;2022-12-24T10:48:13;4.13;;;3.50;;
13228;SDS011;6680;53.220;10.402;2022-12-24T10:50:49;5.63;;;3.10;;
13228;SDS011;6680;53.220;10.402;2022-12-24T10:53:20;4.87;;;3.20;;
13228;SDS011;6680;53.220;10.402;2022-12-24T10:55:59;4.37;;;3.57;;
13228;SDS011;6680;53.220;10.402;2022-12-24T10:58:27;5.37;;;3.97;;
13228;SDS011;6680;53.220;10.402;2022-12-24T11:00:54;5.77;;;4.03;;
13228;SDS011;6680;53.220;10.402;2022-12-24T11:03:24;4.87;;;3.90;;
13228;SDS011;6680;53.220;10.402;2022-12-24T11:06:03;5.00;;;3.70;;
13228;SDS011;6680;53.220;10.402;2022-12-24T11:08:32;6.03;;;4.00;;
13228;SDS011;6680;53.220;10.402;2022-12-24T11:11:00;5.63;;;4.20;;
13228;SDS011;6680;53.220;10.402;2022-12-24T11:13:29;6.60;;;4.40;;
13228;SDS011;6680;53.220;10.402;2022-12-24T11:15:58;8.93;;;3.73;;
13228;SDS011;6680;53.220;10.402;2022-12-24T11:18:32;5.67;;;4.07;;
13228;SDS011;6680;53.220;10.402;2022-12-24T11:21:01;7.77;;;3.53;;
13228;SDS011;6680;53.220;10.402;2022-12-24T11:23:29;5.53;;;3.70;;
13228;SDS011;6680;53.220;10.402;2022-12-24T11:25:56;6.13;;;4.07;;
13228;SDS011;6680;53.220;10.402;2022-12-24T11:28:24;7.00;;;4.83;;
13228;SDS011;6680;53.220;10.402;2022-12-24T11:30:56;6.60;;;5.00;;
13228;SDS011;6680;53.220;10.402;2022-12-24T11:33:26;6.03;;;3.93;;
13228;SDS011;6680;53.220;10.402;2022-12-24T11:35:56;6.70;;;4.90;;
13228;SDS011;6680;53.220;10.402;2022-12-24T11:38:27;6.73;;;4.20;;
13228;SDS011;6680;53.220;10.402;2022-12-24T11:40:56;8.10;;;4.37;;
13228;SDS011;6680;53.220;10.402;2022-12-24T11:43:25;5.60;;;3.83;;
13228;SDS011;6680;53.220;10.402;2022-12-24T11:46:12;9.80;;;4.77;;
13228;SDS011;6680;53.220;10.402;2022-12-24T11:48:41;6.07;;;4.97;;
13228;SDS011;6680;53.220;10.402;2022-12-24T11:51:18;5.90;;;4.23;;
13228;SDS011;6680;53.220;10.402;2022-12-24T11:53:47;7.57;;;5.87;;
13228;SDS011;6680;53.220;10.402;2022-12-24T11:56:24;7.27;;;6.10;;
13228;SDS011;6680;53.220;10.402;2022-12-24T11:58:58;7.73;;;4.83;;
13228;SDS011;6680;53.220;10.402;2022-12-24T12:01:28;8.57;;;4.73;;
13228;SDS011;6680;53.220;10.402;2022-12-24T12:03:59;10.20;;;5.33;;
13228;SDS011;6680;53.220;10.402;2022-12-24T12:06:31;11.53;;;6.07;;
13228;SDS011;6680;53.220;10.402;2022-12-24T12:09:04;14.03;;;7.00;;
13228;SDS011;6680;53.220;10.402;2022-12-24T12:11:35;15.27;;;7.00;;
13228;SDS011;6680;53.220;10.402;2022-12-24T12:14:07;10.70;;;6.17;;
13228;SDS011;6680;53.220;10.402;2022-12-24T12:16:43;15.80;;;6.03;;
13228;SDS011;6680;53.220;10.402;2022-12-24T12:19:29;14.37;;;6.77;;
13228;SDS011;6680;53.220;10.402;2022-12-24T12:22:00;11.80;;;5.80;;
13228;SDS011;6680;53.220;10.402;2022-12-24T12:24:32;13.83;;;5.77;;
13228;SDS011;6680;53.220;10.402;2022-12-24T12:27:04;13.83;;;5.77;;
13228;SDS011;6680;53.220;10.402;2022-12-24T12:29:43;16.20;;;6.07;;
13228;SDS011;6680;53.220;10.402;2022-12-24T12:32:21;11.60;;;5.27;;
13228;SDS011;6680;53.220;10.402;2022-12-24T12:34:58;15.53;;;5.60;;
13228;SDS011;6680;53.220;10.402;2022-12-24T12:37:32;10.77;;;5.67;;
13228;SDS011;6680;53.220;10.402;2022-12-24T12:40:05;13.10;;;5.30;;
13228;SDS011;6680;53.220;10.402;2022-12-24T12:42:39;13.77;;;5.53;;
13228;SDS011;6680;53.220;10.402;2022-12-24T12:45:24;15.00;;;6.87;;
13228;SDS011;6680;53.220;10.402;2022-12-24T12:48:02;23.13;;;10.63;;
13228;SDS011;6680;53.220;10.402;2022-12-24T12:50:43;14.20;;;5.83;;
13228;SDS011;6680;53.220;10.402;2022-12-24T12:53:19;16.13;;;5.60;;
13228;SDS011;6680;53.220;10.402;2022-12-24T12:55:55;13.30;;;5.43;;
13228;SDS011;6680;53.220;10.402;2022-12-24T12:58:29;11.23;;;5.73;;
13228;SDS011;6680;53.220;10.402;2022-12-24T13:01:00;14.50;;;7.30;;
13228;SDS011;6680;53.220;10.402;2022-12-24T13:03:42;15.27;;;6.37;;
13228;SDS011;6680;53.220;10.402;2022-12-24T13:06:38;16.87;;;6.37;;
13228;SDS011;6680;53.220;10.402;2022-12-24T13:09:22;13.13;;;5.47;;
13228;SDS011;6680;53.220;10.402;2022-12-24T13:12:07;13.37;;;5.60;;
13228;SDS011;6680;53.220;10.402;2022-12-24T13:17:43;9.10;;;4.80;;
13228;SDS011;6680;53.220;10.402;2022-12-24T13:20:19;11.60;;;5.00;;
13228;SDS011;6680;53.220;10.402;2022-12-24T13:22:53;15.23;;;5.97;;
13228;SDS011;6680;53.220;10.402;2022-12-24T13:25:28;9.20;;;4.83;;
13228;SDS011;6680;53.220;10.402;2022-12-24T13:28:13;7.43;;;4.10;;
13228;SDS011;6680;53.220;10.402;2022-12-24T13:33:52;14.73;;;5.37;;
13228;SDS011;6680;53.220;10.402;2022-12-24T13:36:19;14.47;;;4.47;;
13228;SDS011;6680;53.220;10.402;2022-12-24T13:38:47;6.80;;;4.50;;
13228;SDS011;6680;53.220;10.402;2022-12-24T13:44:20;9.30;;;5.47;;
13228;SDS011;6680;53.220;10.402;2022-12-24T13:46:50;9.13;;;5.63;;
13228;SDS011;6680;53.220;10.402;2022-12-24T13:49:22;12.33;;;5.20;;
13228;SDS011;6680;53.220;10.402;2022-12-24T13:52:03;7.57;;;5.00;;
13228;SDS011;6680;53.220;10.402;2022-12-24T13:54:32;7.53;;;4.90;;
13228;SDS011;6680;53.220;10.402;2022-12-24T13:57:00;9.83;;;5.13;;
13228;SDS011;6680;53.220;10.402;2022-12-24T13:59:32;8.20;;;5.47;;
13228;SDS011;6680;53.220;10.402;2022-12-24T14:02:01;14.37;;;4.83;;
13228;SDS011;6680;53.220;10.402;2022-12-24T14:04:30;6.40;;;4.43;;
13228;SDS011;6680;53.220;10.402;2022-12-24T14:07:01;7.73;;;4.33;;
13228;SDS011;6680;53.220;10.402;2022-12-24T14:09:30;5.27;;;4.53;;
13228;SDS011;6680;53.220;10.402;2022-12-24T14:12:14;5.80;;;4.57;;
13228;SDS011;6680;53.220;10.402;2022-12-24T14:14:57;6.60;;;3.90;;
13228;SDS011;6680;53.220;10.402;2022-12-24T14:17:44;8.43;;;4.43;;
13228;SDS011;6680;53.220;10.402;2022-12-24T14:20:13;12.57;;;5.00;;
13228;SDS011;6680;53.220;10.402;2022-12-24T14:22:43;8.20;;;4.27;;
13228;SDS011;6680;53.220;10.402;2022-12-24T14:25:12;7.37;;;4.70;;
13228;SDS011;6680;53.220;10.402;2022-12-24T14:27:43;12.90;;;4.83;;
13228;SDS011;6680;53.220;10.402;2022-12-24T14:30:18;7.87;;;4.30;;
13228;SDS011;6680;53.220;10.402;2022-12-24T14:32:46;5.93;;;4.17;;
13228;SDS011;6680;53.220;10.402;2022-12-24T14:35:14;10.30;;;4.70;;
13228;SDS011;6680;53.220;10.402;2022-12-24T14:37:44;6.73;;;4.30;;
13228;SDS011;6680;53.220;10.402;2022-12-24T14:40:14;6.60;;;3.97;;
13228;SDS011;6680;53.220;10.402;2022-12-24T14:42:46;7.10;;;4.23;;
13228;SDS011;6680;53.220;10.402;2022-12-24T14:45:21;8.47;;;4.07;;
13228;SDS011;6680;53.220;10.402;2022-12-24T14:47:57;6.47;;;4.40;;
13228;SDS011;6680;53.220;10.402;2022-12-24T14:53:27;6.20;;;4.17;;
13228;SDS011;6680;53.220;10.402;2022-12-24T14:56:08;9.23;;;3.93;;
13228;SDS011;6680;53.220;10.402;2022-12-24T14:58:39;7.90;;;4.33;;
13228;SDS011;6680;53.220;10.402;2022-12-24T15:01:18;14.40;;;5.33;;
13228;SDS011;6680;53.220;10.402;2022-12-24T15:03:58;8.40;;;4.27;;
13228;SDS011;6680;53.220;10.402;2022-12-24T15:06:26;8.33;;;3.80;;
13228;SDS011;6680;53.220;10.402;2022-12-24T15:08:55;7.33;;;5.60;;
13228;SDS011;6680;53.220;10.402;2022-12-24T15:11:22;10.87;;;6.47;;
13228;SDS011;6680;53.220;10.402;2022-12-24T15:13:50;15.37;;;7.60;;
13228;SDS011;6680;53.220;10.402;2022-12-24T15:16:22;10.37;;;7.50;;
13228;SDS011;6680;53.220;10.402;2022-12-24T15:18:54;10.90;;;5.80;;